sensor_id;sensor_type;location;lat;lon;timestamp;pressure;altitude;pressure_sealevel;temperature;humidity
76660;BME280;65579;45.534;6.212;2023-06-22T00:02:15;98172.46;;;24.55;44.04
76660;BME280;65579;45.534;6.212;2023-06-22T00:04:40;98166.84;;;25.01;43.23
76660;BME280;65579;45.534;6.212;2023-06-22T00:07:05;98156.31;;;24.10;44.90
76660;BME280;65579;45.534;6.212;2023-06-22T00:09:31;98149.05;;;24.38;44.32
76660;BME280;65579;45.534;6.212;2023-06-22T00:11:56;98144.50;;;24.92;43.50
76660;BME280;65579;45.534;6.212;2023-06-22T00:14:21;98145.20;;;25.10;42.60
76660;BME280;65579;45.534;6.212;2023-06-22T00:21:37;98121.77;;;25.20;42.56
76660;BME280;65579;45.534;6.212;2023-06-22T00:24:04;98116.60;;;25.17;41.94
76660;BME280;65579;45.534;6.212;2023-06-22T00:26:28;98111.10;;;25.19;42.15
76660;BME280;65579;45.534;6.212;2023-06-22T00:28:53;98100.60;;;24.85;43.04
76660;BME280;65579;45.534;6.212;2023-06-22T00:31:19;98090.64;;;24.88;43.00
76660;BME280;65579;45.534;6.212;2023-06-22T00:33:44;98091.87;;;24.12;44.39
76660;BME280;65579;45.534;6.212;2023-06-22T00:36:10;98093.65;;;23.83;44.99
76660;BME280;65579;45.534;6.212;2023-06-22T00:38:35;98095.33;;;24.48;42.92
76660;BME280;65579;45.534;6.212;2023-06-22T00:41:01;98098.41;;;24.41;42.89
76660;BME280;65579;45.534;6.212;2023-06-22T00:43:26;98093.80;;;22.92;46.46
76660;BME280;65579;45.534;6.212;2023-06-22T00:45:52;98090.93;;;22.17;48.05
76660;BME280;65579;45.534;6.212;2023-06-22T00:48:17;98089.44;;;21.63;48.99
76660;BME280;65579;45.534;6.212;2023-06-22T00:50:42;98096.43;;;19.62;54.33
76660;BME280;65579;45.534;6.212;2023-06-22T00:53:09;98096.54;;;22.06;48.16
76660;BME280;65579;45.534;6.212;2023-06-22T00:55:33;98102.17;;;22.31;47.58
76660;BME280;65579;45.534;6.212;2023-06-22T00:57:58;98098.77;;;19.49;53.93
76660;BME280;65579;45.534;6.212;2023-06-22T01:00:24;98089.71;;;19.24;55.65
76660;BME280;65579;45.534;6.212;2023-06-22T01:02:50;98094.92;;;19.55;54.48
76660;BME280;65579;45.534;6.212;2023-06-22T01:05:19;98098.68;;;20.70;51.66
76660;BME280;65579;45.534;6.212;2023-06-22T01:07:47;98100.30;;;20.42;52.21
76660;BME280;65579;45.534;6.212;2023-06-22T01:10:11;98093.03;;;19.11;55.39
76660;BME280;65579;45.534;6.212;2023-06-22T01:12:38;98090.50;;;20.25;52.67
76660;BME280;65579;45.534;6.212;2023-06-22T01:15:04;98093.64;;;20.05;52.53
76660;BME280;65579;45.534;6.212;2023-06-22T01:17:23;98094.20;;;22.48;47.67
76660;BME280;65579;45.534;6.212;2023-06-22T01:19:50;98091.06;;;20.99;50.04
76660;BME280;65579;45.534;6.212;2023-06-22T01:22:16;98092.97;;;20.14;52.57
76660;BME280;65579;45.534;6.212;2023-06-22T01:24:51;98092.61;;;22.08;48.04
76660;BME280;65579;45.534;6.212;2023-06-22T01:27:13;98099.89;;;22.44;47.59
76660;BME280;65579;45.534;6.212;2023-06-22T01:29:31;98100.23;;;22.90;45.89
76660;BME280;65579;45.534;6.212;2023-06-22T01:31:56;98095.01;;;23.01;46.42
76660;BME280;65579;45.534;6.212;2023-06-22T01:34:21;98093.12;;;22.00;48.33
76660;BME280;65579;45.534;6.212;2023-06-22T01:36:46;98091.56;;;21.27;49.48
76660;BME280;65579;45.534;6.212;2023-06-22T01:39:12;98093.06;;;22.31;47.60
76660;BME280;65579;45.534;6.212;2023-06-22T01:41:39;98094.68;;;22.13;47.96
76660;BME280;65579;45.534;6.212;2023-06-22T01:44:05;98077.71;;;23.27;44.90
76660;BME280;65579;45.534;6.212;2023-06-22T01:46:29;98068.07;;;22.86;46.17
76660;BME280;65579;45.534;6.212;2023-06-22T01:48:55;98063.02;;;22.14;47.68
76660;BME280;65579;45.534;6.212;2023-06-22T01:51:20;98051.60;;;21.02;50.06
76660;BME280;65579;45.534;6.212;2023-06-22T01:53:45;98047.42;;;19.32;55.35
76660;BME280;65579;45.534;6.212;2023-06-22T01:56:10;98040.81;;;18.45;57.85
76660;BME280;65579;45.534;6.212;2023-06-22T01:58:42;98033.14;;;19.13;56.02
76660;BME280;65579;45.534;6.212;2023-06-22T02:01:09;98022.07;;;21.20;50.63
76660;BME280;65579;45.534;6.212;2023-06-22T02:03:31;98024.44;;;22.38;47.74
76660;BME280;65579;45.534;6.212;2023-06-22T02:05:56;98022.60;;;22.79;46.40
76660;BME280;65579;45.534;6.212;2023-06-22T02:08:20;98029.46;;;21.83;48.37
76660;BME280;65579;45.534;6.212;2023-06-22T02:10:44;98022.50;;;22.81;46.36
76660;BME280;65579;45.534;6.212;2023-06-22T02:13:11;98038.72;;;21.61;48.72
76660;BME280;65579;45.534;6.212;2023-06-22T02:15:34;98039.28;;;19.00;55.72
76660;BME280;65579;45.534;6.212;2023-06-22T02:18:00;98027.69;;;20.60;52.56
76660;BME280;65579;45.534;6.212;2023-06-22T02:20:25;98028.20;;;21.19;50.49
76660;BME280;65579;45.534;6.212;2023-06-22T02:22:51;98038.78;;;18.82;55.29
76660;BME280;65579;45.534;6.212;2023-06-22T02:25:16;98031.37;;;21.28;51.21
76660;BME280;65579;45.534;6.212;2023-06-22T02:27:41;98030.82;;;21.86;48.69
76660;BME280;65579;45.534;6.212;2023-06-22T02:30:07;98045.73;;;18.40;57.73
76660;BME280;65579;45.534;6.212;2023-06-22T02:32:32;98054.47;;;17.44;60.81
76660;BME280;65579;45.534;6.212;2023-06-22T02:34:57;98054.23;;;19.42;56.52
76660;BME280;65579;45.534;6.212;2023-06-22T02:37:23;98047.99;;;20.75;51.78
76660;BME280;65579;45.534;6.212;2023-06-22T02:39:48;98048.43;;;22.24;48.95
76660;BME280;65579;45.534;6.212;2023-06-22T02:42:13;98043.52;;;21.72;49.44
76660;BME280;65579;45.534;6.212;2023-06-22T02:44:39;98042.91;;;23.13;46.67
76660;BME280;65579;45.534;6.212;2023-06-22T02:47:05;98051.42;;;22.31;47.11
76660;BME280;65579;45.534;6.212;2023-06-22T02:49:31;98050.57;;;22.95;46.48
76660;BME280;65579;45.534;6.212;2023-06-22T02:51:57;98050.82;;;21.88;48.02
76660;BME280;65579;45.534;6.212;2023-06-22T02:54:22;98045.67;;;22.55;47.19
76660;BME280;65579;45.534;6.212;2023-06-22T02:56:47;98057.35;;;22.36;46.73
76660;BME280;65579;45.534;6.212;2023-06-22T02:59:14;98059.13;;;21.57;49.06
76660;BME280;65579;45.534;6.212;2023-06-22T03:01:38;98062.92;;;22.78;46.47
76660;BME280;65579;45.534;6.212;2023-06-22T03:04:03;98061.02;;;23.65;44.77
76660;BME280;65579;45.534;6.212;2023-06-22T03:06:29;98061.57;;;23.07;45.19
76660;BME280;65579;45.534;6.212;2023-06-22T03:08:59;98058.80;;;23.75;43.74
76660;BME280;65579;45.534;6.212;2023-06-22T03:11:20;98052.44;;;23.86;43.59
76660;BME280;65579;45.534;6.212;2023-06-22T03:13:46;98049.57;;;24.33;43.18
76660;BME280;65579;45.534;6.212;2023-06-22T03:16:11;98040.79;;;24.09;42.77
76660;BME280;65579;45.534;6.212;2023-06-22T03:18:36;98032.56;;;24.24;43.44
76660;BME280;65579;45.534;6.212;2023-06-22T03:21:02;98031.19;;;23.09;45.41
76660;BME280;65579;45.534;6.212;2023-06-22T03:23:28;98030.92;;;23.47;44.78
76660;BME280;65579;45.534;6.212;2023-06-22T03:25:53;98021.40;;;20.66;49.66
76660;BME280;65579;45.534;6.212;2023-06-22T03:28:18;98022.27;;;23.20;45.61
76660;BME280;65579;45.534;6.212;2023-06-22T03:30:44;98018.05;;;23.69;44.26
76660;BME280;65579;45.534;6.212;2023-06-22T03:33:09;98014.84;;;23.75;44.08
76660;BME280;65579;45.534;6.212;2023-06-22T03:35:35;98030.04;;;21.56;48.10
76660;BME280;65579;45.534;6.212;2023-06-22T03:38:01;98027.29;;;22.20;47.30
76660;BME280;65579;45.534;6.212;2023-06-22T03:40:26;98040.20;;;21.79;47.80
76660;BME280;65579;45.534;6.212;2023-06-22T03:42:51;98032.87;;;20.52;50.90
76660;BME280;65579;45.534;6.212;2023-06-22T03:45:17;98031.90;;;20.32;51.37
76660;BME280;65579;45.534;6.212;2023-06-22T03:47:43;98047.05;;;20.64;51.22
76660;BME280;65579;45.534;6.212;2023-06-22T03:50:08;98059.07;;;20.26;51.68
76660;BME280;65579;45.534;6.212;2023-06-22T03:52:33;98062.11;;;19.41;52.78
76660;BME280;65579;45.534;6.212;2023-06-22T03:54:59;98058.15;;;21.71;48.89
76660;BME280;65579;45.534;6.212;2023-06-22T03:57:24;98066.31;;;22.90;45.95
76660;BME280;65579;45.534;6.212;2023-06-22T03:59:50;98053.03;;;22.30;46.40
76660;BME280;65579;45.534;6.212;2023-06-22T04:02:15;98061.51;;;23.28;44.91
76660;BME280;65579;45.534;6.212;2023-06-22T04:04:40;98094.45;;;19.69;52.34
76660;BME280;65579;45.534;6.212;2023-06-22T04:07:06;98111.29;;;19.33;54.62
76660;BME280;65579;45.534;6.212;2023-06-22T04:09:31;98133.50;;;17.72;57.74
76660;BME280;65579;45.534;6.212;2023-06-22T04:11:57;98137.92;;;19.09;55.80
76660;BME280;65579;45.534;6.212;2023-06-22T04:14:22;98164.96;;;19.59;54.29
76660;BME280;65579;45.534;6.212;2023-06-22T04:16:47;98192.85;;;18.03;57.26
76660;BME280;65579;45.534;6.212;2023-06-22T04:19:12;98222.92;;;18.55;55.84
76660;BME280;65579;45.534;6.212;2023-06-22T04:21:37;98242.89;;;17.89;58.09
76660;BME280;65579;45.534;6.212;2023-06-22T04:24:03;98251.26;;;17.43;59.27
76660;BME280;65579;45.534;6.212;2023-06-22T04:26:28;98261.67;;;18.26;57.52
76660;BME280;65579;45.534;6.212;2023-06-22T04:28:53;98263.03;;;19.36;54.61
76660;BME280;65579;45.534;6.212;2023-06-22T04:31:19;98284.10;;;18.79;56.14
76660;BME280;65579;45.534;6.212;2023-06-22T04:33:45;98271.31;;;18.28;57.52
76660;BME280;65579;45.534;6.212;2023-06-22T04:36:10;98272.80;;;18.78;56.23
76660;BME280;65579;45.534;6.212;2023-06-22T04:38:36;98272.42;;;18.42;56.11
76660;BME280;65579;45.534;6.212;2023-06-22T04:41:01;98280.26;;;19.23;54.11
76660;BME280;65579;45.534;6.212;2023-06-22T04:43:27;98315.97;;;19.83;53.44
76660;BME280;65579;45.534;6.212;2023-06-22T04:45:53;98334.88;;;20.21;52.58
76660;BME280;65579;45.534;6.212;2023-06-22T04:48:18;98349.82;;;19.79;53.72
76660;BME280;65579;45.534;6.212;2023-06-22T04:50:43;98374.73;;;18.46;57.27
76660;BME280;65579;45.534;6.212;2023-06-22T04:53:08;98380.16;;;19.28;55.45
76660;BME280;65579;45.534;6.212;2023-06-22T04:55:34;98381.77;;;20.26;53.36
76660;BME280;65579;45.534;6.212;2023-06-22T04:57:59;98382.98;;;21.36;50.04
76660;BME280;65579;45.534;6.212;2023-06-22T05:00:24;98371.44;;;21.20;50.22
76660;BME280;65579;45.534;6.212;2023-06-22T05:02:50;98383.42;;;22.74;48.97
76660;BME280;65579;45.534;6.212;2023-06-22T05:05:16;98376.55;;;22.25;49.32
76660;BME280;65579;45.534;6.212;2023-06-22T05:07:42;98377.66;;;21.55;49.83
76660;BME280;65579;45.534;6.212;2023-06-22T05:10:07;98385.21;;;18.15;57.97
76660;BME280;65579;45.534;6.212;2023-06-22T05:12:32;98381.46;;;16.99;63.10
76660;BME280;65579;45.534;6.212;2023-06-22T05:14:57;98395.34;;;16.79;66.50
76660;BME280;65579;45.534;6.212;2023-06-22T05:17:23;98399.85;;;17.86;62.99
76660;BME280;65579;45.534;6.212;2023-06-22T05:19:48;98407.38;;;18.97;60.49
76660;BME280;65579;45.534;6.212;2023-06-22T05:22:14;98401.43;;;19.76;57.79
76660;BME280;65579;45.534;6.212;2023-06-22T05:24:38;98388.58;;;22.45;51.68
76660;BME280;65579;45.534;6.212;2023-06-22T05:27:05;98371.06;;;23.25;48.36
76660;BME280;65579;45.534;6.212;2023-06-22T05:29:30;98364.29;;;23.89;46.18
76660;BME280;65579;45.534;6.212;2023-06-22T05:31:56;98356.60;;;21.26;51.32
76660;BME280;65579;45.534;6.212;2023-06-22T05:34:20;98346.00;;;20.19;54.19
76660;BME280;65579;45.534;6.212;2023-06-22T05:36:46;98340.74;;;19.26;57.43
76660;BME280;65579;45.534;6.212;2023-06-22T05:39:12;98319.94;;;18.12;62.74
76660;BME280;65579;45.534;6.212;2023-06-22T05:41:37;98285.67;;;18.01;63.63
76660;BME280;65579;45.534;6.212;2023-06-22T05:44:02;98274.91;;;17.81;62.75
76660;BME280;65579;45.534;6.212;2023-06-22T05:46:28;98265.48;;;17.59;63.85
76660;BME280;65579;45.534;6.212;2023-06-22T05:48:54;98268.08;;;17.41;64.58
76660;BME280;65579;45.534;6.212;2023-06-22T05:51:19;98281.62;;;18.10;61.99
76660;BME280;65579;45.534;6.212;2023-06-22T05:53:45;98286.72;;;17.02;63.55
76660;BME280;65579;45.534;6.212;2023-06-22T05:56:11;98291.75;;;19.35;57.65
76660;BME280;65579;45.534;6.212;2023-06-22T05:58:36;98304.38;;;19.03;58.11
76660;BME280;65579;45.534;6.212;2023-06-22T06:01:02;98307.27;;;19.17;57.56
76660;BME280;65579;45.534;6.212;2023-06-22T06:03:27;98316.42;;;17.15;62.25
76660;BME280;65579;45.534;6.212;2023-06-22T06:05:53;98319.58;;;19.52;57.77
76660;BME280;65579;45.534;6.212;2023-06-22T06:08:18;98335.12;;;21.37;52.96
76660;BME280;65579;45.534;6.212;2023-06-22T06:10:44;98337.88;;;22.06;50.87
76660;BME280;65579;45.534;6.212;2023-06-22T06:13:09;98326.85;;;22.95;48.74
76660;BME280;65579;45.534;6.212;2023-06-22T06:15:35;98321.09;;;21.99;51.06
76660;BME280;65579;45.534;6.212;2023-06-22T06:18:01;98310.24;;;23.71;46.82
76660;BME280;65579;45.534;6.212;2023-06-22T06:20:26;98305.75;;;24.12;46.26
76660;BME280;65579;45.534;6.212;2023-06-22T06:22:52;98313.10;;;23.68;47.00
76660;BME280;65579;45.534;6.212;2023-06-22T06:25:18;98313.93;;;21.30;52.46
76660;BME280;65579;45.534;6.212;2023-06-22T06:27:43;98303.78;;;23.80;47.15
76660;BME280;65579;45.534;6.212;2023-06-22T06:30:09;98289.91;;;24.21;45.52
76660;BME280;65579;45.534;6.212;2023-06-22T06:32:34;98311.52;;;24.51;45.50
76660;BME280;65579;45.534;6.212;2023-06-22T06:34:59;98310.77;;;23.35;46.96
76660;BME280;65579;45.534;6.212;2023-06-22T06:37:24;98324.45;;;22.24;49.41
76660;BME280;65579;45.534;6.212;2023-06-22T06:39:50;98336.71;;;23.61;47.18
76660;BME280;65579;45.534;6.212;2023-06-22T06:42:15;98334.53;;;22.44;49.75
76660;BME280;65579;45.534;6.212;2023-06-22T06:44:40;98311.03;;;20.11;54.67
76660;BME280;65579;45.534;6.212;2023-06-22T06:47:06;98313.30;;;20.93;54.22
76660;BME280;65579;45.534;6.212;2023-06-22T06:49:33;98297.61;;;21.70;52.05
76660;BME280;65579;45.534;6.212;2023-06-22T06:51:57;98279.02;;;21.77;52.01
76660;BME280;65579;45.534;6.212;2023-06-22T06:54:23;98264.98;;;19.94;54.57
76660;BME280;65579;45.534;6.212;2023-06-22T06:56:49;98253.15;;;20.03;54.03
76660;BME280;65579;45.534;6.212;2023-06-22T06:59:14;98249.85;;;19.13;55.99
76660;BME280;65579;45.534;6.212;2023-06-22T07:01:39;98240.42;;;19.04;56.51
76660;BME280;65579;45.534;6.212;2023-06-22T07:04:05;98246.18;;;19.13;57.40
76660;BME280;65579;45.534;6.212;2023-06-22T07:06:30;98228.34;;;19.29;55.91
76660;BME280;65579;45.534;6.212;2023-06-22T07:08:56;98240.40;;;20.29;54.18
76660;BME280;65579;45.534;6.212;2023-06-22T07:11:22;98230.58;;;19.84;55.04
76660;BME280;65579;45.534;6.212;2023-06-22T07:13:47;98224.98;;;19.76;56.32
76660;BME280;65579;45.534;6.212;2023-06-22T07:16:13;98240.37;;;20.23;55.26
76660;BME280;65579;45.534;6.212;2023-06-22T07:18:39;98228.82;;;20.79;53.68
76660;BME280;65579;45.534;6.212;2023-06-22T07:21:04;98236.37;;;19.48;57.09
76660;BME280;65579;45.534;6.212;2023-06-22T07:23:29;98226.79;;;20.72;54.59
76660;BME280;65579;45.534;6.212;2023-06-22T07:25:54;98207.78;;;20.81;53.77
76660;BME280;65579;45.534;6.212;2023-06-22T07:28:20;98227.36;;;21.27;52.22
76660;BME280;65579;45.534;6.212;2023-06-22T07:30:45;98244.60;;;22.39;51.62
76660;BME280;65579;45.534;6.212;2023-06-22T07:33:10;98258.14;;;21.26;52.29
76660;BME280;65579;45.534;6.212;2023-06-22T07:35:36;98249.59;;;22.02;50.63
76660;BME280;65579;45.534;6.212;2023-06-22T07:38:01;98259.27;;;21.34;52.59
76660;BME280;65579;45.534;6.212;2023-06-22T07:40:27;98270.08;;;21.42;52.08
76660;BME280;65579;45.534;6.212;2023-06-22T07:42:53;98270.72;;;23.37;48.44
76660;BME280;65579;45.534;6.212;2023-06-22T07:45:18;98260.94;;;21.97;50.07
76660;BME280;65579;45.534;6.212;2023-06-22T07:47:43;98271.48;;;21.15;53.67
76660;BME280;65579;45.534;6.212;2023-06-22T07:50:10;98278.53;;;22.38;51.21
76660;BME280;65579;45.534;6.212;2023-06-22T07:52:34;98300.82;;;22.62;50.38
76660;BME280;65579;45.534;6.212;2023-06-22T07:54:59;98320.36;;;21.52;53.10
76660;BME280;65579;45.534;6.212;2023-06-22T07:57:25;98329.91;;;19.71;58.01
76660;BME280;65579;45.534;6.212;2023-06-22T07:59:51;98301.09;;;19.98;57.44
76660;BME280;65579;45.534;6.212;2023-06-22T08:02:17;98303.62;;;21.38;54.92
76660;BME280;65579;45.534;6.212;2023-06-22T08:04:42;98301.97;;;23.08;50.82
76660;BME280;65579;45.534;6.212;2023-06-22T08:07:07;98316.64;;;22.61;51.11
76660;BME280;65579;45.534;6.212;2023-06-22T08:09:32;98325.81;;;21.04;55.91
76660;BME280;65579;45.534;6.212;2023-06-22T08:11:57;98299.17;;;22.04;53.04
76660;BME280;65579;45.534;6.212;2023-06-22T08:14:23;98315.04;;;19.52;60.02
76660;BME280;65579;45.534;6.212;2023-06-22T08:16:49;98319.10;;;17.29;66.13
76660;BME280;65579;45.534;6.212;2023-06-22T08:19:16;98320.65;;;19.09;61.54
76660;BME280;65579;45.534;6.212;2023-06-22T08:21:51;98298.58;;;18.58;65.26
76660;BME280;65579;45.534;6.212;2023-06-22T08:24:07;98296.62;;;18.73;64.14
76660;BME280;65579;45.534;6.212;2023-06-22T08:26:30;98294.71;;;18.74;64.42
76660;BME280;65579;45.534;6.212;2023-06-22T08:28:56;98259.34;;;19.91;60.42
76660;BME280;65579;45.534;6.212;2023-06-22T08:31:22;98253.12;;;17.89;64.85
76660;BME280;65579;45.534;6.212;2023-06-22T08:33:46;98240.12;;;17.98;64.68
76660;BME280;65579;45.534;6.212;2023-06-22T08:36:12;98249.46;;;18.67;63.44
76660;BME280;65579;45.534;6.212;2023-06-22T08:38:37;98243.21;;;20.09;59.24
76660;BME280;65579;45.534;6.212;2023-06-22T08:41:03;98246.00;;;20.95;57.46
76660;BME280;65579;45.534;6.212;2023-06-22T08:43:28;98246.81;;;19.93;60.82
76660;BME280;65579;45.534;6.212;2023-06-22T08:45:53;98249.67;;;20.91;58.27
76660;BME280;65579;45.534;6.212;2023-06-22T08:48:19;98248.07;;;19.71;54.59
76660;BME280;65579;45.534;6.212;2023-06-22T08:50:44;98235.79;;;21.29;54.45
76660;BME280;65579;45.534;6.212;2023-06-22T08:53:10;98219.65;;;20.14;56.11
76660;BME280;65579;45.534;6.212;2023-06-22T08:55:35;98226.06;;;19.18;53.18
76660;BME280;65579;45.534;6.212;2023-06-22T08:58:00;98239.70;;;21.94;54.74
76660;BME280;65579;45.534;6.212;2023-06-22T09:00:26;98234.55;;;19.54;56.67
76660;BME280;65579;45.534;6.212;2023-06-22T09:02:52;98238.17;;;23.13;50.21
76660;BME280;65579;45.534;6.212;2023-06-22T09:05:17;98242.36;;;22.60;51.97
76660;BME280;65579;45.534;6.212;2023-06-22T09:07:42;98250.75;;;23.78;49.13
76660;BME280;65579;45.534;6.212;2023-06-22T09:10:08;98247.04;;;21.20;53.79
76660;BME280;65579;45.534;6.212;2023-06-22T09:12:34;98246.94;;;21.43;53.32
76660;BME280;65579;45.534;6.212;2023-06-22T09:15:01;98246.30;;;22.59;52.76
76660;BME280;65579;45.534;6.212;2023-06-22T09:17:26;98242.75;;;24.99;47.38
76660;BME280;65579;45.534;6.212;2023-06-22T09:19:51;98245.82;;;24.91;46.66
76660;BME280;65579;45.534;6.212;2023-06-22T09:22:16;98239.87;;;23.79;47.54
76660;BME280;65579;45.534;6.212;2023-06-22T09:24:41;98239.69;;;23.22;50.86
76660;BME280;65579;45.534;6.212;2023-06-22T09:27:06;98244.01;;;21.09;54.42
76660;BME280;65579;45.534;6.212;2023-06-22T09:29:32;98251.53;;;20.40;57.02
76660;BME280;65579;45.534;6.212;2023-06-22T09:31:57;98256.22;;;19.88;57.81
76660;BME280;65579;45.534;6.212;2023-06-22T09:34:23;98264.25;;;19.36;59.35
76660;BME280;65579;45.534;6.212;2023-06-22T09:36:48;98266.68;;;20.51;56.46
76660;BME280;65579;45.534;6.212;2023-06-22T09:39:13;98272.41;;;20.33;56.89
76660;BME280;65579;45.534;6.212;2023-06-22T09:41:39;98269.51;;;22.79;51.58
76660;BME280;65579;45.534;6.212;2023-06-22T09:44:04;98266.38;;;20.06;58.12
76660;BME280;65579;45.534;6.212;2023-06-22T09:46:30;98260.45;;;19.89;59.04
76660;BME280;65579;45.534;6.212;2023-06-22T09:48:55;98260.79;;;22.55;53.51
76660;BME280;65579;45.534;6.212;2023-06-22T09:51:21;98283.71;;;23.48;50.54
76660;BME280;65579;45.534;6.212;2023-06-22T09:53:46;98299.36;;;23.19;51.24
76660;BME280;65579;45.534;6.212;2023-06-22T09:56:11;98298.42;;;23.06;51.86
76660;BME280;65579;45.534;6.212;2023-06-22T09:58:37;98291.96;;;22.76;51.56
76660;BME280;65579;45.534;6.212;2023-06-22T10:01:02;98288.72;;;23.09;52.50
76660;BME280;65579;45.534;6.212;2023-06-22T10:03:27;98294.79;;;22.18;53.82
76660;BME280;65579;45.534;6.212;2023-06-22T10:05:53;98297.11;;;21.12;54.19
76660;BME280;65579;45.534;6.212;2023-06-22T10:08:18;98299.72;;;22.87;48.19
76660;BME280;65579;45.534;6.212;2023-06-22T10:10:43;98301.59;;;22.46;50.55
76660;BME280;65579;45.534;6.212;2023-06-22T10:13:14;98295.48;;;23.28;48.20
76660;BME280;65579;45.534;6.212;2023-06-22T10:15:44;98282.92;;;24.81;46.93
76660;BME280;65579;45.534;6.212;2023-06-22T10:18:01;98285.01;;;25.94;45.36
76660;BME280;65579;45.534;6.212;2023-06-22T10:20:28;98279.66;;;25.24;46.79
76660;BME280;65579;45.534;6.212;2023-06-22T10:22:51;98263.57;;;27.54;41.85
76660;BME280;65579;45.534;6.212;2023-06-22T10:25:17;98266.08;;;27.84;41.46
76660;BME280;65579;45.534;6.212;2023-06-22T10:27:43;98281.00;;;26.72;42.29
76660;BME280;65579;45.534;6.212;2023-06-22T10:30:08;98292.88;;;27.32;42.18
76660;BME280;65579;45.534;6.212;2023-06-22T10:32:33;98286.63;;;27.82;39.87
76660;BME280;65579;45.534;6.212;2023-06-22T10:34:59;98285.01;;;29.09;38.25
76660;BME280;65579;45.534;6.212;2023-06-22T10:37:24;98287.07;;;29.22;37.40
76660;BME280;65579;45.534;6.212;2023-06-22T10:39:50;98293.57;;;29.26;36.80
76660;BME280;65579;45.534;6.212;2023-06-22T10:42:16;98298.46;;;29.40;37.54
76660;BME280;65579;45.534;6.212;2023-06-22T10:44:41;98303.38;;;27.61;41.55
76660;BME280;65579;45.534;6.212;2023-06-22T10:47:07;98306.47;;;29.03;40.29
76660;BME280;65579;45.534;6.212;2023-06-22T10:49:33;98320.43;;;28.69;39.09
76660;BME280;65579;45.534;6.212;2023-06-22T10:51:58;98339.24;;;27.56;40.55
76660;BME280;65579;45.534;6.212;2023-06-22T10:54:23;98352.33;;;27.04;41.40
76660;BME280;65579;45.534;6.212;2023-06-22T10:56:48;98360.59;;;26.13;45.34
76660;BME280;65579;45.534;6.212;2023-06-22T10:59:14;98349.57;;;25.30;45.54
76660;BME280;65579;45.534;6.212;2023-06-22T11:01:40;98324.57;;;23.47;49.84
76660;BME280;65579;45.534;6.212;2023-06-22T11:04:05;98303.58;;;24.24;50.46
76660;BME280;65579;45.534;6.212;2023-06-22T11:06:31;98290.58;;;22.34;52.93
76660;BME280;65579;45.534;6.212;2023-06-22T11:08:57;98291.56;;;21.28;54.07
76660;BME280;65579;45.534;6.212;2023-06-22T11:11:22;98305.62;;;20.24;55.96
76660;BME280;65579;45.534;6.212;2023-06-22T11:13:48;98302.96;;;20.24;58.29
76660;BME280;65579;45.534;6.212;2023-06-22T11:16:13;98288.32;;;20.12;60.84
76660;BME280;65579;45.534;6.212;2023-06-22T11:18:39;98251.57;;;20.62;59.76
76660;BME280;65579;45.534;6.212;2023-06-22T11:21:04;98232.73;;;20.47;59.27
76660;BME280;65579;45.534;6.212;2023-06-22T11:23:29;98213.74;;;20.17;57.56
76660;BME280;65579;45.534;6.212;2023-06-22T11:25:55;98221.29;;;20.14;53.66
76660;BME280;65579;45.534;6.212;2023-06-22T11:28:21;98215.99;;;22.13;54.34
76660;BME280;65579;45.534;6.212;2023-06-22T11:30:47;98207.06;;;24.00;48.97
76660;BME280;65579;45.534;6.212;2023-06-22T11:33:13;98200.16;;;22.38;49.75
76660;BME280;65579;45.534;6.212;2023-06-22T11:35:38;98198.17;;;19.29;57.27
76660;BME280;65579;45.534;6.212;2023-06-22T11:38:04;98209.00;;;18.78;58.00
76660;BME280;65579;45.534;6.212;2023-06-22T11:40:29;98192.92;;;19.16;59.90
76660;BME280;65579;45.534;6.212;2023-06-22T11:42:54;98196.41;;;19.35;60.06
76660;BME280;65579;45.534;6.212;2023-06-22T11:45:20;98195.07;;;21.70;54.78
76660;BME280;65579;45.534;6.212;2023-06-22T11:47:46;98192.78;;;24.45;48.30
76660;BME280;65579;45.534;6.212;2023-06-22T11:50:12;98193.68;;;21.02;52.12
76660;BME280;65579;45.534;6.212;2023-06-22T11:52:37;98184.21;;;19.44;57.68
76660;BME280;65579;45.534;6.212;2023-06-22T11:55:04;98179.03;;;19.84;57.30
76660;BME280;65579;45.534;6.212;2023-06-22T11:57:28;98171.28;;;19.89;59.72
76660;BME280;65579;45.534;6.212;2023-06-22T11:59:54;98170.94;;;20.65;48.54
76660;BME280;65579;45.534;6.212;2023-06-22T12:02:20;98168.40;;;20.94;52.35
76660;BME280;65579;45.534;6.212;2023-06-22T12:04:45;98178.13;;;21.72;52.28
76660;BME280;65579;45.534;6.212;2023-06-22T12:07:11;98152.30;;;22.27;47.11
76660;BME280;65579;45.534;6.212;2023-06-22T12:09:36;98139.75;;;21.88;46.93
76660;BME280;65579;45.534;6.212;2023-06-22T12:12:03;98152.80;;;21.91;47.14
76660;BME280;65579;45.534;6.212;2023-06-22T12:14:28;98130.68;;;23.42;38.19
76660;BME280;65579;45.534;6.212;2023-06-22T12:16:54;98121.53;;;23.44;40.77
76660;BME280;65579;45.534;6.212;2023-06-22T12:19:19;98102.87;;;22.25;47.18
76660;BME280;65579;45.534;6.212;2023-06-22T12:21:45;98112.36;;;23.45;37.93
76660;BME280;65579;45.534;6.212;2023-06-22T12:24:10;98154.61;;;24.85;43.21
76660;BME280;65579;45.534;6.212;2023-06-22T12:26:35;98167.33;;;24.68;46.18
76660;BME280;65579;45.534;6.212;2023-06-22T12:29:01;98166.20;;;25.31;43.69
76660;BME280;65579;45.534;6.212;2023-06-22T12:31:26;98170.70;;;25.43;45.36
76660;BME280;65579;45.534;6.212;2023-06-22T12:33:52;98177.59;;;25.15;43.33
76660;BME280;65579;45.534;6.212;2023-06-22T12:36:18;98183.12;;;25.35;43.91
76660;BME280;65579;45.534;6.212;2023-06-22T12:38:43;98176.92;;;24.74;45.98
76660;BME280;65579;45.534;6.212;2023-06-22T12:41:09;98169.24;;;25.02;44.56
76660;BME280;65579;45.534;6.212;2023-06-22T12:43:34;98154.77;;;26.45;43.61
76660;BME280;65579;45.534;6.212;2023-06-22T12:45:59;98150.64;;;26.47;42.48
76660;BME280;65579;45.534;6.212;2023-06-22T12:48:26;98153.16;;;26.83;40.24
76660;BME280;65579;45.534;6.212;2023-06-22T12:50:51;98146.58;;;27.35;40.37
76660;BME280;65579;45.534;6.212;2023-06-22T12:53:16;98145.18;;;26.40;42.02
76660;BME280;65579;45.534;6.212;2023-06-22T12:55:41;98142.14;;;26.63;41.35